Chelsea, New York
Current Conditions -  °F | °C
As of 7:53 AM on Wednesday 26 Nov 2014 (Local Time) from KPOU Reporting Station
Overcast Overcast  
Wind Chill: 35°   Ceiling: 4800
Heat Index: 41°   Visibility: 10mi
Dew Point: 26°   Wind: 9mph
Humidity: 55%   Direction: 20°NNE
Pressure: 30.19"   Gusts: NA
Location:  41.55°N, 73.96°W
Report Text: KPOU 261253Z 02008KT 10SM OVC048 05/M03 A3019 RMK AO2 RAB1159E07 SLP221 P0000 T00501033
Loading
Personal Weather Stations






























Interactive Weather Map New forecast layout! Learn more

10-Day Weather Forecast

Advertisements
Track Severe Weather on mobile